AirNav   Air Wisconsin pilot careers
 
 949 users online  

9II4 Cruzan Field Airport
Arcadia, Indiana, USA

GOING TO ARCADIA?


FAA INFORMATION EFFECTIVE 01 FEBRUARY 2018

Location

FAA Identifier: 9II4
Lat/Long: 40-10-21.0000N / 085-56-41.0000W
40-10.350000N / 085-56.683333W
40.1725000 / -85.9447222
(estimated)
Elevation: 845 ft. / 258 m (estimated)
Variation: 03W (1990)
From city: 4 miles E of ARCADIA, IN
Time zone: UTC -5 (UTC -4 during Daylight Saving Time)
Zip code: 46034

Airport Operations

Airport use: Private use. Permission required prior to landing
Activation date: 11/1992
Control tower: no
ARTCC: CHICAGO CENTER
FSS: TERRE HAUTE FLIGHT SERVICE STATION
Attendance: UNATNDD
Wind indicator: yes
Segmented circle: no

Airport Communications

WX AWOS-3 at UMP (15 nm S): 119.375 (317-842-3911)
WX AWOS-3 at AID (16 nm E): 128.55 (765-378-1510)
WX AWOS-3PT at TYQ (16 nm SW): 120.725 (317-769-3154)
WX AWOS-3 at MQJ (20 nm S): 124.175 (317-335-3037)

Nearby radio navigation aids

VOR radial/distance  VOR name  Freq  Var
OKKr171/21.9KOKOMO VORTAC113.5005W
MZZr215/22.8MARION VOR/DME108.6003W
MIEr264/25.5MUNCIE VOR/DME114.4003W
VHPr041/29.0BRICKYARD VORTAC116.3001E
GUSr164/29.9GRISSOM VORTAC108.4502W
SHBr349/32.9SHELBYVILLE VOR/DME112.0001E

 
NDB name  Hdg/Dist  Freq  Var  ID
METROPOLITAN022/14.933803WUMP ..- -- .--.
NEW CASTLE303/33.738502WUWL ..- .-- .-..

Airport Services

Runway Information

Runway 9/27

Dimensions: 2400 x 70 ft. / 732 x 21 m
Surface: turf
RUNWAY 9  RUNWAY 27
Traffic pattern: leftleft
Displaced threshold: no560 ft.
Obstructions: none35 ft. bldg, 140 ft. from runway

Airport Ownership and Management from official FAA records

Ownership: Privately-owned
Owner: ROBERT E. CRUZAN II
26410 S.R. 213
ARCADIA, IN 46030
Phone 317-439-0800
Manager: ROBERT E. CRUZAN II
26410 S.R. 213
ARCADIA, IN 46030
Phone 317-439-0800

Airport Operational Statistics

Aircraft based on the field: 4
Single engine airplanes: 1
Ultralights: 3
    

Instrument Procedures

There are no published instrument procedures at 9II4.

Some nearby airports with instrument procedures:

5I4 - Sheridan Airport (12 nm W)
KUMP - Indianapolis Metropolitan Airport (15 nm S)
KAID - Anderson Municipal Airport-Darlington Field (16 nm E)
KTYQ - Indianapolis Executive Airport (16 nm SW)
KMQJ - Indianapolis Regional Airport (20 nm S)
 
Loc | Ops | Rwys | IFR | FBO | Links
Com | Nav | Svcs | Stats | Notes

AirNav Hotels Sweepstakes
 
Area around 9II4 (Cruzan Field Airport)
 
Road maps at: MapQuest Bing Google
 
Aerial photo
No photo
 
Sectional chart

 
Airport distance calculator
Flying to Cruzan Field Airport? Find the distance to fly.

From to 9II4

Sunrise and sunset
Times for 25-Feb-2018
 Local
(UTC-5)
 Zulu
(UTC)
Morning civil twilight06:5711:57
Sunrise07:2412:24
Sunset18:3023:30
Evening civil twilight18:5723:57

Current date and time
Zulu (UTC)  26-Feb-2018 02:16:53
Local (UTC-5)  25-Feb-2018 21:16:53
 
METAR
KTYQ 
16nm SW 
260155Z AUTO 29003KT 10SM CLR 03/M01 A3013 RMK AO2 T00251012
KMQJ 
20nm S 
260155Z AUTO 28003KT 10SM CLR 03/00 A3013 RMK AO1
KOKK 
22nm N 
260056Z AUTO 25005KT 10SM CLR 02/M01 A3012 RMK AO2 SLP208 T00221006 FZRANO
KMZZ 
23nm NE 
260155Z AUTO 00000KT 10SM CLR 02/00 A3012 RMK AO2 T00171002
KMIE 
25nm E 
260153Z 26005KT 10SM CLR 04/M01 A3012 RMK AO2 SLP200 T00441011 $
KEYE 
26nm SW 
260153Z AUTO 00000KT 10SM CLR 05/M02 A3013 RMK AO2 SLP206 T00501017
KFKR 
29nm W 
260155Z AUTO 27005KT 10SM CLR 02/00 A3014 RMK AO2 T00210000
KGUS 
29nm N 
260156Z AUTO 25007KT 10SM CLR 01/00 A3010 RMK AO2 SLP204 T00130004 RVRNO $
TAF
KGUS 
29nm N 
251900Z 2519/2701 25015G25KT 9999 FEW100 510203 QNH3000INS BECMG 2522/2523 24009KT 9999 FEW150 QNH3006INS TX08/2618Z TNM01/2609Z
KIND 
31nm SW 
252013Z 2520/2624 24016G21KT P6SM FEW040 BKN250 FM252300 25008KT P6SM FEW250 FM260200 26004KT P6SM FEW250 FM262300 20004KT P6SM SKC
NOTAMs
Click for the latest NOTAMs
NOTAMs are issued by the DoD/FAA and will open in a separate window not controlled by AirNav.

 

 
 

Would you like to see your business listed on this page?

 If your business provides an interesting product or service to pilots, flight crews, aircraft, or users of the Cruzan Field Airport, you should consider listing it here.  To start the listing process, click on the button below
 
Add a business
 

Other Pages about Cruzan Field Airport

Update a link
 
Copyright © AirNav, LLC. All rights reserved. Privacy Policy  Contact